createdAt,value
2022-09-23T00:01:20.545Z,0.43
2022-09-23T00:03:49.077Z,0.75
2022-09-23T00:06:18.880Z,0.60
2022-09-23T00:08:46.745Z,0.75
2022-09-23T00:11:19.932Z,0.90
2022-09-23T00:13:48.995Z,0.60
2022-09-23T00:16:22.644Z,0.95
2022-09-23T00:18:50.650Z,1.10
2022-09-23T00:21:19.292Z,0.63
2022-09-23T00:23:46.206Z,1.30
2022-09-23T00:26:16.141Z,0.77
2022-09-23T00:28:43.681Z,1.00
2022-09-23T00:31:13.898Z,0.60
2022-09-23T00:33:41.045Z,0.82
2022-09-23T00:36:15.690Z,0.65
2022-09-23T00:38:43.973Z,0.77
2022-09-23T00:41:11.908Z,0.82
2022-09-23T00:43:44.931Z,0.93
2022-09-23T00:46:18.729Z,0.65
2022-09-23T00:48:46.985Z,1.20
2022-09-23T00:51:19.348Z,0.70
2022-09-23T00:53:48.600Z,1.00
2022-09-23T00:56:16.109Z,0.88
2022-09-23T00:58:46.078Z,0.90
2022-09-23T01:01:14.538Z,1.10
2022-09-23T01:03:46.597Z,0.85
2022-09-23T01:06:14.098Z,0.90
2022-09-23T01:08:59.917Z,0.50
2022-09-23T01:11:48.405Z,0.38
2022-09-23T01:14:36.432Z,1.42
2022-09-23T01:17:13.407Z,0.70
2022-09-23T01:19:52.359Z,0.60
2022-09-23T01:22:25.109Z,0.40
2022-09-23T01:25:13.442Z,0.80
2022-09-23T01:28:01.770Z,0.63
2022-09-23T01:30:47.084Z,0.55
2022-09-23T01:33:31.833Z,0.73
2022-09-23T01:36:14.575Z,0.90
2022-09-23T01:38:47.131Z,0.80
2022-09-23T01:41:38.933Z,0.60
2022-09-23T01:44:18.434Z,0.85
2022-09-23T01:47:11.040Z,0.60
2022-09-23T01:49:55.190Z,0.40
2022-09-23T01:52:30.474Z,0.52
2022-09-23T01:55:08.188Z,1.02
2022-09-23T01:57:43.667Z,0.57
2022-09-23T02:00:15.614Z,0.47
2022-09-23T02:02:54.620Z,0.30
2022-09-23T02:05:30.451Z,0.30
2022-09-23T02:08:06.139Z,0.40
2022-09-23T02:10:58.741Z,0.57
2022-09-23T02:13:36.348Z,1.25
2022-09-23T02:16:11.950Z,0.30
2022-09-23T02:18:47.594Z,0.60
2022-09-23T02:21:16.774Z,0.68
2022-09-23T02:23:50.597Z,0.40
2022-09-23T02:26:27.757Z,1.20
2022-09-23T02:29:22.564Z,0.47
2022-09-23T02:35:32.934Z,0.68
2022-09-23T02:38:14.686Z,0.68
2022-09-23T02:40:54.587Z,0.45
2022-09-23T02:43:48.626Z,0.30
2022-09-23T02:46:16.643Z,0.50
2022-09-23T02:48:50.397Z,0.60
2022-09-23T02:51:38.239Z,0.60
2022-09-23T02:54:25.821Z,0.75
2022-09-23T02:56:53.377Z,0.73
2022-09-23T02:59:22.839Z,0.50
2022-09-23T03:02:14.393Z,1.00
2022-09-23T03:04:58.526Z,0.77
2022-09-23T03:07:51.875Z,0.50
2022-09-23T03:10:28.335Z,0.93
2022-09-23T03:13:05.016Z,0.75
2022-09-23T03:15:37.504Z,1.23
2022-09-23T03:18:19.285Z,0.70
2022-09-23T03:21:11.611Z,0.70
2022-09-23T03:23:40.530Z,0.50
2022-09-23T03:26:13.742Z,0.40
2022-09-23T03:28:43.863Z,0.70
2022-09-23T03:31:13.218Z,0.25
2022-09-23T03:33:46.489Z,0.50
2022-09-23T03:36:34.753Z,0.45
2022-09-23T03:39:08.747Z,0.35
2022-09-23T03:41:41.891Z,0.50
2022-09-23T03:44:09.247Z,0.50
2022-09-23T03:46:36.235Z,0.40
2022-09-23T03:49:28.110Z,0.55
2022-09-23T03:51:55.500Z,0.70
2022-09-23T03:54:22.345Z,0.65
2022-09-23T03:59:34.409Z,0.50
2022-09-23T04:02:02.608Z,0.35
2022-09-23T04:04:34.293Z,0.55
2022-09-23T04:07:01.451Z,0.55
2022-09-23T04:09:28.945Z,0.30
2022-09-23T04:11:55.796Z,0.50
2022-09-23T04:14:23.384Z,0.75
2022-09-23T04:17:08.918Z,0.55
2022-09-23T04:19:54.062Z,0.40
2022-09-23T04:22:20.928Z,0.30
2022-09-23T04:24:47.739Z,1.15
2022-09-23T04:27:14.470Z,0.60
2022-09-23T04:29:41.486Z,0.73
2022-09-23T04:32:08.236Z,0.43
2022-09-23T04:34:35.060Z,0.40
2022-09-23T04:37:01.741Z,0.77
2022-09-23T04:39:28.604Z,0.60
2022-09-23T04:41:55.316Z,0.70
2022-09-23T04:44:22.138Z,1.05
2022-09-23T04:46:49.372Z,0.52
2022-09-23T04:49:16.641Z,0.60
2022-09-23T04:51:43.705Z,0.30
2022-09-23T04:54:12.230Z,0.85
2022-09-23T04:56:39.928Z,0.95
2022-09-23T04:59:07.606Z,1.00
2022-09-23T05:01:36.512Z,0.50
2022-09-23T05:04:08.661Z,0.60
2022-09-23T05:06:36.619Z,0.73
2022-09-23T05:09:06.623Z,0.60
2022-09-23T05:11:34.833Z,0.70
2022-09-23T05:14:20.209Z,0.60
2022-09-23T05:16:47.077Z,0.50
2022-09-23T05:19:13.854Z,0.30
2022-09-23T05:21:40.645Z,0.82
2022-09-23T05:24:07.571Z,0.60
2022-09-23T05:26:54.204Z,0.65
2022-09-23T05:29:20.992Z,0.50
2022-09-23T05:31:47.832Z,0.60
2022-09-23T05:34:14.859Z,1.13
2022-09-23T05:36:41.582Z,0.52
2022-09-23T05:39:26.772Z,0.50
2022-09-23T05:41:55.605Z,0.45
2022-09-23T05:44:22.346Z,0.38
2022-09-23T05:46:49.338Z,0.65
2022-09-23T05:49:16.138Z,0.70
2022-09-23T05:52:01.640Z,1.20
2022-09-23T05:54:28.442Z,1.17
2022-09-23T05:57:14.227Z,0.73
2022-09-23T05:59:59.561Z,0.95
2022-09-23T06:02:26.418Z,1.02
2022-09-23T06:04:53.217Z,0.60
2022-09-23T06:07:20.219Z,0.73
2022-09-23T06:09:46.953Z,1.35
2022-09-23T06:12:14.236Z,0.85
2022-09-23T06:14:40.992Z,1.40
2022-09-23T06:17:07.792Z,0.90
2022-09-23T06:19:34.531Z,0.80
2022-09-23T06:22:01.421Z,0.93
2022-09-23T06:24:31.285Z,0.90
2022-09-23T06:26:58.508Z,1.48
2022-09-23T06:29:25.269Z,0.77
2022-09-23T06:31:52.153Z,1.02
2022-09-23T06:34:46.868Z,1.00
2022-09-23T06:37:20.219Z,1.60
2022-09-23T06:39:49.207Z,1.67
2022-09-23T06:42:16.666Z,1.15
2022-09-23T06:45:02.205Z,2.35
2022-09-23T06:47:29.331Z,2.30
2022-09-23T06:49:56.157Z,2.53
2022-09-23T06:52:22.944Z,2.20
2022-09-23T06:54:49.889Z,1.80
2022-09-23T06:57:16.887Z,1.10
2022-09-23T06:59:43.650Z,1.35
2022-09-23T07:02:11.210Z,1.35
2022-09-23T07:04:38.106Z,0.93
2022-09-23T07:07:05.032Z,1.27
2022-09-23T07:12:16.171Z,0.98
2022-09-23T07:14:43.205Z,1.30
2022-09-23T07:17:09.965Z,2.58
2022-09-23T07:19:36.738Z,2.40
2022-09-23T07:22:03.785Z,1.80
2022-09-23T07:24:30.514Z,1.30
2022-09-23T07:26:57.271Z,1.40
2022-09-23T07:29:24.030Z,1.13
2022-09-23T07:31:51.286Z,1.48
2022-09-23T07:34:18.839Z,1.20
2022-09-23T07:36:45.673Z,1.40
2022-09-23T07:39:13.632Z,1.23
2022-09-23T07:41:59.720Z,1.20
2022-09-23T07:44:47.783Z,1.20
2022-09-23T07:47:15.742Z,1.10
2022-09-23T07:50:02.340Z,0.90
2022-09-23T07:52:49.764Z,0.60
2022-09-23T07:55:20.255Z,1.00
2022-09-23T07:57:47.928Z,0.85
2022-09-23T08:00:14.837Z,0.43
2022-09-23T08:02:41.980Z,1.38
2022-09-23T08:05:09.440Z,0.57
2022-09-23T08:07:36.254Z,0.68
2022-09-23T08:10:03.503Z,0.80
2022-09-23T08:12:31.157Z,0.70
2022-09-23T08:14:59.627Z,0.85
2022-09-23T08:17:26.800Z,1.05
2022-09-23T08:19:53.522Z,0.88
2022-09-23T08:22:20.857Z,0.40
2022-09-23T08:24:47.648Z,0.40
2022-09-23T08:27:14.541Z,0.47
2022-09-23T08:29:41.320Z,0.50
2022-09-23T08:32:08.203Z,0.47
2022-09-23T08:34:35.899Z,0.43
2022-09-23T08:37:02.825Z,0.65
2022-09-23T08:39:29.576Z,0.30
2022-09-23T08:41:59.060Z,0.60
2022-09-23T08:44:55.275Z,0.47
2022-09-23T08:47:47.160Z,0.25
2022-09-23T08:50:20.493Z,0.45
2022-09-23T08:52:57.124Z,0.30
2022-09-23T08:55:32.668Z,0.57
2022-09-23T08:58:36.958Z,0.45
2022-09-23T09:01:23.046Z,0.77
2022-09-23T09:03:53.880Z,0.60
2022-09-23T09:06:31.208Z,0.38
2022-09-23T09:09:01.581Z,0.68
2022-09-23T09:11:50.337Z,0.55
2022-09-23T09:14:25.453Z,0.60
2022-09-23T09:17:17.848Z,0.30
2022-09-23T09:19:53.605Z,0.30
2022-09-23T09:22:48.549Z,0.40
2022-09-23T09:25:23.700Z,0.40
2022-09-23T09:27:51.722Z,0.60
2022-09-23T09:30:19.838Z,0.80
2022-09-23T09:33:01.424Z,0.60
2022-09-23T09:35:42.248Z,0.43
2022-09-23T09:38:09.150Z,0.30
2022-09-23T09:40:44.532Z,0.40
2022-09-23T09:43:22.739Z,0.70
2022-09-23T09:45:57.724Z,1.17
2022-09-23T09:48:39.696Z,0.30
2022-09-23T09:51:27.771Z,0.45
2022-09-23T09:54:14.843Z,0.30
2022-09-23T09:57:05.117Z,0.68
2022-09-23T09:59:32.515Z,0.50
2022-09-23T10:02:26.455Z,0.75
2022-09-23T10:04:59.893Z,0.50
2022-09-23T10:07:29.875Z,0.60
2022-09-23T10:10:01.885Z,0.47
2022-09-23T10:12:49.648Z,0.32
2022-09-23T10:15:44.729Z,0.25
2022-09-23T10:18:19.842Z,0.30
2022-09-23T10:21:14.467Z,0.38
2022-09-23T10:23:46.765Z,0.50
2022-09-23T10:26:33.859Z,0.30
2022-09-23T10:29:02.928Z,0.30
2022-09-23T10:31:35.576Z,0.28
2022-09-23T10:34:20.797Z,0.50
2022-09-23T10:37:01.740Z,0.35
2022-09-23T10:39:47.427Z,0.45
2022-09-23T10:42:40.367Z,0.30
2022-09-23T10:45:45.598Z,0.57
2022-09-23T10:48:50.270Z,0.10
2022-09-23T10:51:43.671Z,0.30
2022-09-23T10:54:25.572Z,0.40
2022-09-23T10:57:01.350Z,0.85
2022-09-23T10:59:55.219Z,0.65
2022-09-23T11:03:02.903Z,0.30
2022-09-23T11:05:43.381Z,0.60
2022-09-23T11:08:54.834Z,0.60
2022-09-23T11:11:52.434Z,0.35
2022-09-23T11:14:51.545Z,0.17
2022-09-23T11:17:59.382Z,0.30
2022-09-23T11:20:54.566Z,0.20
2022-09-23T11:23:42.922Z,0.20
2022-09-23T11:26:33.270Z,0.20
2022-09-23T11:29:42.512Z,0.40
2022-09-23T11:32:40.302Z,0.10
2022-09-23T11:35:20.565Z,0.38
2022-09-23T11:37:53.343Z,0.20
2022-09-23T11:40:35.533Z,0.32
2022-09-23T11:43:11.365Z,0.25
2022-09-23T11:45:44.965Z,0.47
2022-09-23T11:48:21.595Z,0.28
2022-09-23T11:50:55.214Z,0.10
2022-09-23T11:53:31.833Z,0.20
2022-09-23T11:56:03.864Z,0.20
2022-09-23T12:01:45.818Z,0.30
2022-09-23T12:04:33.614Z,0.38
2022-09-23T12:07:16.409Z,0.20
2022-09-23T12:10:01.658Z,0.17
2022-09-23T12:12:49.424Z,0.20
2022-09-23T12:16:01.084Z,0.20
2022-09-23T12:19:13.321Z,0.28
2022-09-23T12:21:52.321Z,0.17
2022-09-23T12:24:40.823Z,0.28
2022-09-23T12:27:31.046Z,0.30
2022-09-23T12:30:13.017Z,0.20
2022-09-23T12:33:24.522Z,0.30
2022-09-23T12:35:54.439Z,0.35
2022-09-23T12:38:26.434Z,0.20
2022-09-23T12:40:56.000Z,0.20
2022-09-23T12:43:37.126Z,0.45
2022-09-23T12:46:36.142Z,0.20
2022-09-23T12:49:05.383Z,0.10
2022-09-23T12:51:35.306Z,0.20
2022-09-23T12:54:04.982Z,0.20
2022-09-23T12:56:56.382Z,0.20
2022-09-23T12:59:23.364Z,0.60
2022-09-23T13:01:50.277Z,0.90
2022-09-23T13:05:03.394Z,0.30
2022-09-23T13:07:34.223Z,0.68
2022-09-23T13:10:58.200Z,0.40
2022-09-23T13:13:43.408Z,0.30
2022-09-23T13:16:21.390Z,0.70
2022-09-23T13:18:55.494Z,0.30
2022-09-23T13:21:44.906Z,0.30
2022-09-23T13:24:24.796Z,0.20
2022-09-23T13:26:55.954Z,0.40
2022-09-23T13:35:46.856Z,0.50
2022-09-23T13:38:26.872Z,0.60
2022-09-23T13:41:07.787Z,0.90
2022-09-23T13:43:41.338Z,0.40
2022-09-23T13:46:30.377Z,0.45
2022-09-23T13:48:57.440Z,0.63
2022-09-23T13:51:33.936Z,0.95
2022-09-23T13:54:54.824Z,0.40
2022-09-23T13:57:31.664Z,0.10
2022-09-23T14:00:16.490Z,0.20
2022-09-23T14:02:44.317Z,0.20
2022-09-23T14:05:13.142Z,0.28
2022-09-23T14:07:59.459Z,0.47
2022-09-23T14:10:27.820Z,0.40
2022-09-23T14:12:56.186Z,0.50
2022-09-23T14:15:23.303Z,0.20
2022-09-23T14:17:53.765Z,0.40
2022-09-23T14:20:23.026Z,0.30
2022-09-23T14:23:04.867Z,0.30
2022-09-23T14:25:32.102Z,0.50
2022-09-23T14:28:00.538Z,0.63
2022-09-23T14:30:27.884Z,0.60
2022-09-23T14:32:54.693Z,0.63
2022-09-23T14:35:27.089Z,0.52
2022-09-23T14:38:15.636Z,0.50
2022-09-23T14:41:15.217Z,0.20
2022-09-23T14:43:55.489Z,0.30
2022-09-23T14:46:24.353Z,0.13
2022-09-23T14:48:54.969Z,0.32
2022-09-23T14:51:40.325Z,0.47
2022-09-23T14:54:33.973Z,0.25
2022-09-23T14:57:22.711Z,0.30
2022-09-23T15:00:08.268Z,0.10
2022-09-23T15:02:42.376Z,0.10
2022-09-23T15:05:16.273Z,0.20
2022-09-23T15:10:38.220Z,0.63
2022-09-23T15:13:36.809Z,0.75
2022-09-23T15:16:05.619Z,0.60
2022-09-23T15:18:35.780Z,0.90
2022-09-23T15:21:19.183Z,0.52
2022-09-23T15:24:04.514Z,0.35
2022-09-23T15:26:52.523Z,0.30
2022-09-23T15:29:19.303Z,0.30
2022-09-23T15:31:46.857Z,0.10
2022-09-23T15:34:13.699Z,0.30
2022-09-23T15:36:40.428Z,0.30
2022-09-23T15:39:10.630Z,0.20
2022-09-23T15:41:37.534Z,0.20
2022-09-23T15:44:17.046Z,0.60
2022-09-23T15:47:08.078Z,0.85
2022-09-23T15:49:36.708Z,0.70
2022-09-23T15:52:05.383Z,0.30
2022-09-23T15:54:34.975Z,0.20
2022-09-23T15:57:02.095Z,0.30
2022-09-23T15:59:48.604Z,0.50
2022-09-23T16:02:23.514Z,0.20
2022-09-23T16:04:51.696Z,0.40
2022-09-23T16:07:19.719Z,0.60
2022-09-23T16:09:46.734Z,0.70
2022-09-23T16:12:13.864Z,0.30
2022-09-23T16:14:40.674Z,0.40
2022-09-23T16:17:09.542Z,0.32
2022-09-23T16:19:36.367Z,0.70
2022-09-23T16:22:04.482Z,0.50
2022-09-23T16:24:31.293Z,0.47
2022-09-23T16:27:00.042Z,0.60
2022-09-23T16:29:27.728Z,0.40
2022-09-23T16:31:55.730Z,0.50
2022-09-23T16:34:22.900Z,0.57
2022-09-23T16:36:49.721Z,0.30
2022-09-23T16:39:16.825Z,0.40
2022-09-23T16:41:44.822Z,0.47
2022-09-23T16:44:12.576Z,0.45
2022-09-23T16:46:42.791Z,0.43
2022-09-23T16:49:12.134Z,0.47
2022-09-23T16:51:39.933Z,0.35
2022-09-23T16:54:10.657Z,0.70
2022-09-23T16:56:46.444Z,0.38
2022-09-23T16:59:14.992Z,0.50
2022-09-23T17:02:00.832Z,0.47
2022-09-23T17:04:46.310Z,0.50
2022-09-23T17:07:13.200Z,0.73
2022-09-23T17:10:00.102Z,0.35
2022-09-23T17:12:35.263Z,0.47
2022-09-23T17:15:06.273Z,0.57
2022-09-23T17:17:39.984Z,0.50
2022-09-23T17:20:44.582Z,0.80
2022-09-23T17:23:11.314Z,0.50
2022-09-23T17:25:38.081Z,0.55
2022-09-23T17:28:04.864Z,0.77
2022-09-23T17:30:32.006Z,0.50
2022-09-23T17:32:58.856Z,0.82
2022-09-23T17:35:25.647Z,0.70
2022-09-23T17:37:54.260Z,1.02
2022-09-23T17:40:21.021Z,1.27
2022-09-23T17:42:47.935Z,0.90
2022-09-23T17:45:15.221Z,1.20
2022-09-23T17:48:00.609Z,2.08
2022-09-23T17:50:27.878Z,0.98
2022-09-23T17:52:54.558Z,1.23
2022-09-23T17:55:21.404Z,1.23
2022-09-23T17:57:50.984Z,1.13
2022-09-23T18:00:18.134Z,0.90
2022-09-23T18:02:44.841Z,0.80
2022-09-23T18:05:11.671Z,0.50
2022-09-23T18:07:38.405Z,0.47
2022-09-23T18:10:23.621Z,1.00
2022-09-23T18:13:10.181Z,1.17
2022-09-23T18:15:38.705Z,0.70
2022-09-23T18:18:06.092Z,1.00
2022-09-23T18:20:33.325Z,0.90
2022-09-23T18:23:00.088Z,1.40
2022-09-23T18:25:39.208Z,1.02
2022-09-23T18:28:06.938Z,0.80
2022-09-23T18:30:34.152Z,1.20
2022-09-23T18:33:01.653Z,0.63
2022-09-23T18:35:28.725Z,1.05
2022-09-23T18:37:56.077Z,1.20
2022-09-23T18:40:22.973Z,1.15
2022-09-23T18:42:50.441Z,0.70
2022-09-23T18:45:17.288Z,1.35
2022-09-23T18:48:21.289Z,0.80
2022-09-23T18:51:07.726Z,0.80
2022-09-23T18:56:42.392Z,0.90
2022-09-23T18:59:14.423Z,1.15
2022-09-23T19:02:00.256Z,0.98
2022-09-23T19:04:45.824Z,1.10
2022-09-23T19:07:12.667Z,1.25
2022-09-23T19:09:39.468Z,0.80
2022-09-23T19:12:25.034Z,1.00
2022-09-23T19:15:10.294Z,0.73
2022-09-23T19:17:55.670Z,0.98
2022-09-23T19:20:22.846Z,0.80
2022-09-23T19:23:28.842Z,1.15
2022-09-23T19:25:55.729Z,0.98
2022-09-23T19:28:22.589Z,0.93
2022-09-23T19:30:50.029Z,1.05
2022-09-23T19:33:16.789Z,1.02
2022-09-23T19:35:51.901Z,1.50
2022-09-23T19:38:21.400Z,1.30
2022-09-23T19:41:25.799Z,1.85
2022-09-23T19:43:53.508Z,1.58
2022-09-23T19:46:41.914Z,1.10
2022-09-23T19:49:08.787Z,0.75
2022-09-23T19:51:35.730Z,0.90
2022-09-23T19:54:04.307Z,1.20
2022-09-23T19:56:32.400Z,1.30
2022-09-23T19:59:00.797Z,1.20
2022-09-23T20:01:29.412Z,1.23
2022-09-23T20:03:56.923Z,1.02
2022-09-23T20:06:23.952Z,0.80
2022-09-23T20:08:50.946Z,1.13
2022-09-23T20:11:27.595Z,1.00
2022-09-23T20:14:01.074Z,0.60
2022-09-23T20:16:32.368Z,0.70
2022-09-23T20:19:01.001Z,1.25
2022-09-23T20:21:29.444Z,1.10
2022-09-23T20:23:57.194Z,1.05
2022-09-23T20:26:42.955Z,1.27
2022-09-23T20:32:14.121Z,1.65
2022-09-23T20:34:44.700Z,0.90
2022-09-23T20:37:11.453Z,0.85
2022-09-23T20:39:38.297Z,1.50
2022-09-23T20:42:07.953Z,2.05
2022-09-23T20:44:34.821Z,1.63
2022-09-23T20:47:01.796Z,2.08
2022-09-23T20:49:31.249Z,2.05
2022-09-23T20:51:58.029Z,2.03
2022-09-23T20:54:24.850Z,1.55
2022-09-23T20:56:51.557Z,1.90
2022-09-23T20:59:18.438Z,2.03
2022-09-23T21:01:45.434Z,2.10
2022-09-23T21:04:12.500Z,1.35
2022-09-23T21:06:39.762Z,1.80
2022-09-23T21:09:07.183Z,1.88
2022-09-23T21:11:34.027Z,1.02
2022-09-23T21:14:01.494Z,1.83
2022-09-23T21:16:47.800Z,1.25
2022-09-23T21:19:14.669Z,0.90
2022-09-23T21:21:41.360Z,0.93
2022-09-23T21:24:37.786Z,0.90
2022-09-23T21:26:55.371Z,0.88
2022-09-23T21:29:22.160Z,1.20
2022-09-23T21:32:07.497Z,0.52
2022-09-23T21:34:34.358Z,1.30
2022-09-23T21:37:20.002Z,1.65
2022-09-23T21:40:06.791Z,0.88
2022-09-23T21:42:33.775Z,1.10
2022-09-23T21:45:00.626Z,1.42
2022-09-23T21:47:45.793Z,1.40
2022-09-23T21:50:12.500Z,1.40
2022-09-23T21:52:39.248Z,1.20
2022-09-23T21:55:06.490Z,1.48
2022-09-23T21:57:33.199Z,1.23
2022-09-23T22:00:00.001Z,1.25
2022-09-23T22:02:27.536Z,1.60
2022-09-23T22:04:54.344Z,1.27
2022-09-23T22:07:21.073Z,1.90
2022-09-23T22:09:48.141Z,1.23
2022-09-23T22:12:14.882Z,1.17
2022-09-23T22:14:42.889Z,1.40
2022-09-23T22:17:11.476Z,1.40
2022-09-23T22:19:45.599Z,1.30
2022-09-23T22:22:15.666Z,1.30
2022-09-23T22:24:43.434Z,1.25
2022-09-23T22:27:12.721Z,1.20
2022-09-23T22:29:58.439Z,1.38
2022-09-23T22:32:55.338Z,0.75
2022-09-23T22:35:22.309Z,1.05
2022-09-23T22:38:07.829Z,1.30
2022-09-23T22:40:35.995Z,1.00
2022-09-23T22:43:02.821Z,1.23
2022-09-23T22:45:29.585Z,1.27
2022-09-23T22:48:14.820Z,0.95
2022-09-23T22:50:41.860Z,1.10
2022-09-23T22:53:11.052Z,1.58
2022-09-23T22:58:40.893Z,1.10
2022-09-23T23:01:10.005Z,0.93
2022-09-23T23:03:37.287Z,0.60
2022-09-23T23:08:49.626Z,1.30
2022-09-23T23:11:35.349Z,1.27
2022-09-23T23:14:05.053Z,1.40
2022-09-23T23:16:35.101Z,1.27
2022-09-23T23:19:07.009Z,1.20
2022-09-23T23:21:34.459Z,1.02
2022-09-23T23:24:03.973Z,0.95
2022-09-23T23:26:32.932Z,1.00
2022-09-23T23:29:01.095Z,1.30
2022-09-23T23:31:29.203Z,0.70
2022-09-23T23:33:56.137Z,0.75
2022-09-23T23:36:23.737Z,0.93
2022-09-23T23:38:53.837Z,0.93
2022-09-23T23:41:22.871Z,0.90
2022-09-23T23:43:58.475Z,0.80
2022-09-23T23:46:27.634Z,0.55
2022-09-23T23:48:55.641Z,0.60
2022-09-23T23:51:23.162Z,0.98
2022-09-23T23:53:49.978Z,0.75
2022-09-23T23:56:19.228Z,0.20
2022-09-23T23:58:46.631Z,0.60
